sensor_id;sensor_type;location;lat;lon;timestamp;P1;durP1;ratioP1;P2;durP2;ratioP2
22005;SDS011;11167;46.988;15.470;2024-01-06T00:01:39;19.80;;;13.32;;
22005;SDS011;11167;46.988;15.470;2024-01-06T00:03:41;18.98;;;13.48;;
22005;SDS011;11167;46.988;15.470;2024-01-06T00:05:42;20.08;;;13.62;;
22005;SDS011;11167;46.988;15.470;2024-01-06T00:07:43;18.45;;;12.37;;
22005;SDS011;11167;46.988;15.470;2024-01-06T00:09:44;18.15;;;13.30;;
22005;SDS011;11167;46.988;15.470;2024-01-06T00:11:46;19.85;;;14.18;;
22005;SDS011;11167;46.988;15.470;2024-01-06T00:13:47;21.17;;;14.20;;
22005;SDS011;11167;46.988;15.470;2024-01-06T00:15:48;19.27;;;13.50;;
22005;SDS011;11167;46.988;15.470;2024-01-06T00:17:50;19.92;;;14.10;;
22005;SDS011;11167;46.988;15.470;2024-01-06T00:19:51;20.10;;;13.30;;
22005;SDS011;11167;46.988;15.470;2024-01-06T00:21:52;19.32;;;13.72;;
22005;SDS011;11167;46.988;15.470;2024-01-06T00:23:53;17.92;;;13.35;;
22005;SDS011;11167;46.988;15.470;2024-01-06T00:25:56;19.60;;;14.13;;
22005;SDS011;11167;46.988;15.470;2024-01-06T00:27:57;20.82;;;13.62;;
22005;SDS011;11167;46.988;15.470;2024-01-06T00:29:58;18.87;;;13.10;;
22005;SDS011;11167;46.988;15.470;2024-01-06T00:32:00;19.70;;;13.98;;
22005;SDS011;11167;46.988;15.470;2024-01-06T00:34:02;21.25;;;14.40;;
22005;SDS011;11167;46.988;15.470;2024-01-06T00:36:04;23.57;;;15.63;;
22005;SDS011;11167;46.988;15.470;2024-01-06T00:38:07;20.43;;;14.30;;
22005;SDS011;11167;46.988;15.470;2024-01-06T00:40:08;20.75;;;14.35;;
22005;SDS011;11167;46.988;15.470;2024-01-06T00:42:11;23.00;;;14.80;;
22005;SDS011;11167;46.988;15.470;2024-01-06T00:44:12;22.65;;;15.23;;
22005;SDS011;11167;46.988;15.470;2024-01-06T00:46:14;21.12;;;14.95;;
22005;SDS011;11167;46.988;15.470;2024-01-06T00:48:15;22.35;;;15.18;;
22005;SDS011;11167;46.988;15.470;2024-01-06T00:50:17;23.38;;;15.55;;
22005;SDS011;11167;46.988;15.470;2024-01-06T00:52:20;21.65;;;15.45;;
22005;SDS011;11167;46.988;15.470;2024-01-06T00:54:21;23.15;;;15.75;;
22005;SDS011;11167;46.988;15.470;2024-01-06T00:56:22;21.05;;;14.73;;
22005;SDS011;11167;46.988;15.470;2024-01-06T00:58:23;24.07;;;15.85;;
22005;SDS011;11167;46.988;15.470;2024-01-06T01:00:25;22.15;;;15.15;;
22005;SDS011;11167;46.988;15.470;2024-01-06T01:02:27;24.87;;;15.80;;
22005;SDS011;11167;46.988;15.470;2024-01-06T01:04:29;21.62;;;14.95;;
22005;SDS011;11167;46.988;15.470;2024-01-06T01:06:30;24.25;;;15.50;;
22005;SDS011;11167;46.988;15.470;2024-01-06T01:08:31;23.18;;;15.50;;
22005;SDS011;11167;46.988;15.470;2024-01-06T01:10:32;21.37;;;14.18;;
22005;SDS011;11167;46.988;15.470;2024-01-06T01:12:33;23.02;;;15.05;;
22005;SDS011;11167;46.988;15.470;2024-01-06T01:14:34;20.62;;;13.98;;
22005;SDS011;11167;46.988;15.470;2024-01-06T01:16:35;21.60;;;14.53;;
22005;SDS011;11167;46.988;15.470;2024-01-06T01:18:37;21.17;;;14.40;;
22005;SDS011;11167;46.988;15.470;2024-01-06T01:20:38;22.62;;;15.00;;
22005;SDS011;11167;46.988;15.470;2024-01-06T01:22:41;21.17;;;14.78;;
22005;SDS011;11167;46.988;15.470;2024-01-06T01:24:42;24.23;;;15.90;;
22005;SDS011;11167;46.988;15.470;2024-01-06T01:26:44;22.65;;;15.63;;
22005;SDS011;11167;46.988;15.470;2024-01-06T01:28:45;23.92;;;15.88;;
22005;SDS011;11167;46.988;15.470;2024-01-06T01:30:46;21.57;;;14.75;;
22005;SDS011;11167;46.988;15.470;2024-01-06T01:32:47;21.68;;;14.28;;
22005;SDS011;11167;46.988;15.470;2024-01-06T01:34:48;22.25;;;14.93;;
22005;SDS011;11167;46.988;15.470;2024-01-06T01:36:49;22.00;;;14.58;;
22005;SDS011;11167;46.988;15.470;2024-01-06T01:38:51;20.43;;;13.80;;
22005;SDS011;11167;46.988;15.470;2024-01-06T01:40:53;20.10;;;13.62;;
22005;SDS011;11167;46.988;15.470;2024-01-06T01:42:54;19.57;;;13.30;;
22005;SDS011;11167;46.988;15.470;2024-01-06T01:44:55;20.88;;;14.00;;
22005;SDS011;11167;46.988;15.470;2024-01-06T01:46:56;20.43;;;13.68;;
22005;SDS011;11167;46.988;15.470;2024-01-06T01:48:57;18.60;;;12.95;;
22005;SDS011;11167;46.988;15.470;2024-01-06T01:51:00;18.92;;;13.50;;
22005;SDS011;11167;46.988;15.470;2024-01-06T01:53:03;19.60;;;14.03;;
22005;SDS011;11167;46.988;15.470;2024-01-06T01:55:05;19.82;;;13.53;;
22005;SDS011;11167;46.988;15.470;2024-01-06T01:57:06;19.82;;;13.60;;
22005;SDS011;11167;46.988;15.470;2024-01-06T01:59:11;20.80;;;14.25;;
22005;SDS011;11167;46.988;15.470;2024-01-06T02:01:14;20.68;;;13.32;;
22005;SDS011;11167;46.988;15.470;2024-01-06T02:03:16;19.00;;;13.35;;
22005;SDS011;11167;46.988;15.470;2024-01-06T02:05:18;18.12;;;13.13;;
22005;SDS011;11167;46.988;15.470;2024-01-06T02:07:19;16.73;;;12.35;;
22005;SDS011;11167;46.988;15.470;2024-01-06T02:09:20;17.60;;;12.07;;
22005;SDS011;11167;46.988;15.470;2024-01-06T02:11:23;19.02;;;13.05;;
22005;SDS011;11167;46.988;15.470;2024-01-06T02:13:29;16.93;;;12.65;;
22005;SDS011;11167;46.988;15.470;2024-01-06T02:15:35;18.87;;;13.05;;
22005;SDS011;11167;46.988;15.470;2024-01-06T02:17:36;20.10;;;13.20;;
22005;SDS011;11167;46.988;15.470;2024-01-06T02:19:39;19.30;;;12.97;;
22005;SDS011;11167;46.988;15.470;2024-01-06T02:21:41;18.55;;;12.63;;
22005;SDS011;11167;46.988;15.470;2024-01-06T02:23:44;16.47;;;12.67;;
22005;SDS011;11167;46.988;15.470;2024-01-06T02:25:45;19.65;;;13.55;;
22005;SDS011;11167;46.988;15.470;2024-01-06T02:27:46;19.10;;;13.13;;
22005;SDS011;11167;46.988;15.470;2024-01-06T02:29:47;21.48;;;14.13;;
22005;SDS011;11167;46.988;15.470;2024-01-06T02:31:48;16.32;;;12.30;;
22005;SDS011;11167;46.988;15.470;2024-01-06T02:33:50;18.32;;;13.60;;
22005;SDS011;11167;46.988;15.470;2024-01-06T02:35:51;19.07;;;13.78;;
22005;SDS011;11167;46.988;15.470;2024-01-06T02:37:53;22.02;;;13.48;;
22005;SDS011;11167;46.988;15.470;2024-01-06T02:39:54;20.17;;;13.95;;
22005;SDS011;11167;46.988;15.470;2024-01-06T02:41:55;18.40;;;13.20;;
22005;SDS011;11167;46.988;15.470;2024-01-06T02:43:56;20.92;;;13.70;;
22005;SDS011;11167;46.988;15.470;2024-01-06T02:45:58;17.73;;;13.00;;
22005;SDS011;11167;46.988;15.470;2024-01-06T02:47:59;20.62;;;13.88;;
22005;SDS011;11167;46.988;15.470;2024-01-06T02:50:00;18.52;;;12.82;;
22005;SDS011;11167;46.988;15.470;2024-01-06T02:52:01;17.80;;;12.63;;
22005;SDS011;11167;46.988;15.470;2024-01-06T02:54:02;18.40;;;12.60;;
22005;SDS011;11167;46.988;15.470;2024-01-06T02:56:09;15.95;;;12.58;;
22005;SDS011;11167;46.988;15.470;2024-01-06T02:58:13;18.45;;;13.28;;
22005;SDS011;11167;46.988;15.470;2024-01-06T03:00:15;18.17;;;13.15;;
22005;SDS011;11167;46.988;15.470;2024-01-06T03:02:16;19.52;;;13.60;;
22005;SDS011;11167;46.988;15.470;2024-01-06T03:04:18;21.12;;;14.75;;
22005;SDS011;11167;46.988;15.470;2024-01-06T03:06:19;20.97;;;14.68;;
22005;SDS011;11167;46.988;15.470;2024-01-06T03:08:20;18.82;;;13.83;;
22005;SDS011;11167;46.988;15.470;2024-01-06T03:10:23;18.73;;;13.88;;
22005;SDS011;11167;46.988;15.470;2024-01-06T03:12:25;20.72;;;14.83;;
22005;SDS011;11167;46.988;15.470;2024-01-06T03:14:26;23.07;;;15.48;;
22005;SDS011;11167;46.988;15.470;2024-01-06T03:16:27;21.42;;;15.28;;
22005;SDS011;11167;46.988;15.470;2024-01-06T03:18:28;20.17;;;15.15;;
22005;SDS011;11167;46.988;15.470;2024-01-06T03:20:29;23.57;;;15.78;;
22005;SDS011;11167;46.988;15.470;2024-01-06T03:22:31;20.60;;;15.20;;
22005;SDS011;11167;46.988;15.470;2024-01-06T03:24:32;20.95;;;15.23;;
22005;SDS011;11167;46.988;15.470;2024-01-06T03:26:33;20.50;;;15.30;;
22005;SDS011;11167;46.988;15.470;2024-01-06T03:28:34;24.10;;;15.93;;
22005;SDS011;11167;46.988;15.470;2024-01-06T03:30:35;19.55;;;15.13;;
22005;SDS011;11167;46.988;15.470;2024-01-06T03:32:36;21.48;;;14.95;;
22005;SDS011;11167;46.988;15.470;2024-01-06T03:34:38;20.50;;;15.15;;
22005;SDS011;11167;46.988;15.470;2024-01-06T03:36:39;20.90;;;14.83;;
22005;SDS011;11167;46.988;15.470;2024-01-06T03:38:41;20.65;;;14.83;;
22005;SDS011;11167;46.988;15.470;2024-01-06T03:40:42;22.17;;;14.38;;
22005;SDS011;11167;46.988;15.470;2024-01-06T03:42:44;18.35;;;13.30;;
22005;SDS011;11167;46.988;15.470;2024-01-06T03:44:46;18.12;;;13.32;;
22005;SDS011;11167;46.988;15.470;2024-01-06T03:46:47;18.87;;;13.93;;
22005;SDS011;11167;46.988;15.470;2024-01-06T03:48:48;18.02;;;12.78;;
22005;SDS011;11167;46.988;15.470;2024-01-06T03:50:49;18.62;;;13.65;;
22005;SDS011;11167;46.988;15.470;2024-01-06T03:52:50;21.00;;;14.15;;
22005;SDS011;11167;46.988;15.470;2024-01-06T03:54:52;18.25;;;13.62;;
22005;SDS011;11167;46.988;15.470;2024-01-06T03:56:53;21.68;;;14.25;;
22005;SDS011;11167;46.988;15.470;2024-01-06T03:58:55;18.02;;;13.75;;
22005;SDS011;11167;46.988;15.470;2024-01-06T04:00:57;18.65;;;13.40;;
22005;SDS011;11167;46.988;15.470;2024-01-06T04:02:58;22.70;;;14.33;;
22005;SDS011;11167;46.988;15.470;2024-01-06T04:05:00;21.00;;;14.40;;
22005;SDS011;11167;46.988;15.470;2024-01-06T04:07:01;19.85;;;13.62;;
22005;SDS011;11167;46.988;15.470;2024-01-06T04:09:02;20.60;;;14.20;;
22005;SDS011;11167;46.988;15.470;2024-01-06T04:11:03;21.00;;;14.13;;
22005;SDS011;11167;46.988;15.470;2024-01-06T04:13:05;23.83;;;14.58;;
22005;SDS011;11167;46.988;15.470;2024-01-06T04:15:06;19.05;;;13.90;;
22005;SDS011;11167;46.988;15.470;2024-01-06T04:17:08;20.80;;;13.78;;
22005;SDS011;11167;46.988;15.470;2024-01-06T04:19:09;19.77;;;13.78;;
22005;SDS011;11167;46.988;15.470;2024-01-06T04:21:12;18.42;;;13.45;;
22005;SDS011;11167;46.988;15.470;2024-01-06T04:23:13;19.52;;;14.13;;
22005;SDS011;11167;46.988;15.470;2024-01-06T04:25:14;17.55;;;13.05;;
22005;SDS011;11167;46.988;15.470;2024-01-06T04:27:16;18.65;;;13.95;;
22005;SDS011;11167;46.988;15.470;2024-01-06T04:29:17;18.20;;;13.68;;
22005;SDS011;11167;46.988;15.470;2024-01-06T04:31:18;18.95;;;13.43;;
22005;SDS011;11167;46.988;15.470;2024-01-06T04:33:19;18.55;;;12.88;;
22005;SDS011;11167;46.988;15.470;2024-01-06T04:35:20;19.45;;;13.88;;
22005;SDS011;11167;46.988;15.470;2024-01-06T04:37:22;19.23;;;13.85;;
22005;SDS011;11167;46.988;15.470;2024-01-06T04:39:23;19.57;;;13.62;;
22005;SDS011;11167;46.988;15.470;2024-01-06T04:41:24;21.65;;;15.18;;
22005;SDS011;11167;46.988;15.470;2024-01-06T04:43:26;19.07;;;13.85;;
22005;SDS011;11167;46.988;15.470;2024-01-06T04:45:27;19.87;;;14.03;;
22005;SDS011;11167;46.988;15.470;2024-01-06T04:47:28;18.70;;;14.03;;
22005;SDS011;11167;46.988;15.470;2024-01-06T04:49:31;21.48;;;13.83;;
22005;SDS011;11167;46.988;15.470;2024-01-06T04:51:32;18.85;;;14.33;;
22005;SDS011;11167;46.988;15.470;2024-01-06T04:53:33;19.30;;;13.88;;
22005;SDS011;11167;46.988;15.470;2024-01-06T04:55:35;19.60;;;13.85;;
22005;SDS011;11167;46.988;15.470;2024-01-06T04:57:36;20.20;;;14.28;;
22005;SDS011;11167;46.988;15.470;2024-01-06T04:59:37;18.23;;;13.68;;
22005;SDS011;11167;46.988;15.470;2024-01-06T05:01:39;19.48;;;13.65;;
22005;SDS011;11167;46.988;15.470;2024-01-06T05:05:45;20.08;;;14.03;;
22005;SDS011;11167;46.988;15.470;2024-01-06T05:07:46;20.12;;;14.38;;
22005;SDS011;11167;46.988;15.470;2024-01-06T05:09:47;21.25;;;14.45;;
22005;SDS011;11167;46.988;15.470;2024-01-06T05:11:49;19.30;;;14.40;;
22005;SDS011;11167;46.988;15.470;2024-01-06T05:13:50;17.82;;;13.93;;
22005;SDS011;11167;46.988;15.470;2024-01-06T05:15:51;19.32;;;13.25;;
22005;SDS011;11167;46.988;15.470;2024-01-06T05:17:52;17.75;;;13.53;;
22005;SDS011;11167;46.988;15.470;2024-01-06T05:19:54;16.00;;;13.00;;
22005;SDS011;11167;46.988;15.470;2024-01-06T05:21:56;17.75;;;13.05;;
22005;SDS011;11167;46.988;15.470;2024-01-06T05:23:58;16.95;;;12.78;;
22005;SDS011;11167;46.988;15.470;2024-01-06T05:28:05;16.82;;;12.75;;
22005;SDS011;11167;46.988;15.470;2024-01-06T05:30:06;18.75;;;12.73;;
22005;SDS011;11167;46.988;15.470;2024-01-06T05:32:08;17.17;;;12.85;;
22005;SDS011;11167;46.988;15.470;2024-01-06T05:34:09;15.85;;;12.05;;
22005;SDS011;11167;46.988;15.470;2024-01-06T05:36:11;18.48;;;12.82;;
22005;SDS011;11167;46.988;15.470;2024-01-06T05:38:12;15.88;;;12.13;;
22005;SDS011;11167;46.988;15.470;2024-01-06T05:40:13;18.85;;;13.30;;
22005;SDS011;11167;46.988;15.470;2024-01-06T05:42:15;18.23;;;13.03;;
22005;SDS011;11167;46.988;15.470;2024-01-06T05:44:16;18.90;;;13.38;;
22005;SDS011;11167;46.988;15.470;2024-01-06T05:46:21;16.62;;;12.65;;
22005;SDS011;11167;46.988;15.470;2024-01-06T05:48:24;18.37;;;13.38;;
22005;SDS011;11167;46.988;15.470;2024-01-06T05:50:26;19.52;;;13.20;;
22005;SDS011;11167;46.988;15.470;2024-01-06T05:52:27;17.90;;;12.73;;
22005;SDS011;11167;46.988;15.470;2024-01-06T05:54:29;17.95;;;12.98;;
22005;SDS011;11167;46.988;15.470;2024-01-06T05:56:33;18.25;;;13.35;;
22005;SDS011;11167;46.988;15.470;2024-01-06T05:58:34;15.78;;;12.37;;
22005;SDS011;11167;46.988;15.470;2024-01-06T06:00:44;16.40;;;12.28;;
22005;SDS011;11167;46.988;15.470;2024-01-06T06:02:47;19.67;;;13.85;;
22005;SDS011;11167;46.988;15.470;2024-01-06T06:04:48;17.23;;;12.40;;
22005;SDS011;11167;46.988;15.470;2024-01-06T06:06:49;16.73;;;12.35;;
22005;SDS011;11167;46.988;15.470;2024-01-06T06:08:51;18.17;;;13.55;;
22005;SDS011;11167;46.988;15.470;2024-01-06T06:10:52;15.88;;;11.85;;
22005;SDS011;11167;46.988;15.470;2024-01-06T06:13:04;15.45;;;11.75;;
22005;SDS011;11167;46.988;15.470;2024-01-06T06:15:06;15.20;;;11.90;;
22005;SDS011;11167;46.988;15.470;2024-01-06T06:17:08;16.05;;;11.40;;
22005;SDS011;11167;46.988;15.470;2024-01-06T06:19:09;14.05;;;11.48;;
22005;SDS011;11167;46.988;15.470;2024-01-06T06:21:10;17.30;;;12.03;;
22005;SDS011;11167;46.988;15.470;2024-01-06T06:23:11;17.52;;;12.28;;
22005;SDS011;11167;46.988;15.470;2024-01-06T06:25:12;15.72;;;12.33;;
22005;SDS011;11167;46.988;15.470;2024-01-06T06:27:14;14.53;;;11.40;;
22005;SDS011;11167;46.988;15.470;2024-01-06T06:29:15;17.82;;;12.18;;
22005;SDS011;11167;46.988;15.470;2024-01-06T06:31:18;18.80;;;12.95;;
22005;SDS011;11167;46.988;15.470;2024-01-06T06:33:19;14.87;;;11.78;;
22005;SDS011;11167;46.988;15.470;2024-01-06T06:35:21;15.55;;;11.75;;
22005;SDS011;11167;46.988;15.470;2024-01-06T06:37:23;16.67;;;11.67;;
22005;SDS011;11167;46.988;15.470;2024-01-06T06:39:24;15.55;;;11.30;;
22005;SDS011;11167;46.988;15.470;2024-01-06T06:41:27;16.42;;;11.55;;
22005;SDS011;11167;46.988;15.470;2024-01-06T06:43:28;14.45;;;11.55;;
22005;SDS011;11167;46.988;15.470;2024-01-06T06:45:29;16.02;;;11.48;;
22005;SDS011;11167;46.988;15.470;2024-01-06T06:47:31;15.65;;;11.95;;
22005;SDS011;11167;46.988;15.470;2024-01-06T06:49:32;14.78;;;11.38;;
22005;SDS011;11167;46.988;15.470;2024-01-06T06:51:33;15.95;;;11.50;;
22005;SDS011;11167;46.988;15.470;2024-01-06T06:53:34;16.50;;;12.37;;
22005;SDS011;11167;46.988;15.470;2024-01-06T06:55:35;15.90;;;11.48;;
22005;SDS011;11167;46.988;15.470;2024-01-06T06:57:38;16.97;;;12.70;;
22005;SDS011;11167;46.988;15.470;2024-01-06T06:59:39;16.62;;;12.50;;
22005;SDS011;11167;46.988;15.470;2024-01-06T07:01:41;14.33;;;12.33;;
22005;SDS011;11167;46.988;15.470;2024-01-06T07:03:42;17.70;;;12.60;;
22005;SDS011;11167;46.988;15.470;2024-01-06T07:05:43;17.23;;;11.97;;
22005;SDS011;11167;46.988;15.470;2024-01-06T07:07:44;15.80;;;12.07;;
22005;SDS011;11167;46.988;15.470;2024-01-06T07:09:47;17.02;;;12.45;;
22005;SDS011;11167;46.988;15.470;2024-01-06T07:11:48;17.07;;;12.70;;
22005;SDS011;11167;46.988;15.470;2024-01-06T07:13:49;19.15;;;12.85;;
22005;SDS011;11167;46.988;15.470;2024-01-06T07:15:50;16.07;;;12.20;;
22005;SDS011;11167;46.988;15.470;2024-01-06T07:17:52;16.65;;;12.45;;
22005;SDS011;11167;46.988;15.470;2024-01-06T07:19:53;18.42;;;13.10;;
22005;SDS011;11167;46.988;15.470;2024-01-06T07:21:54;16.77;;;12.60;;
22005;SDS011;11167;46.988;15.470;2024-01-06T07:23:55;18.42;;;12.58;;
22005;SDS011;11167;46.988;15.470;2024-01-06T07:25:56;19.17;;;13.85;;
22005;SDS011;11167;46.988;15.470;2024-01-06T07:27:58;20.50;;;13.78;;
22005;SDS011;11167;46.988;15.470;2024-01-06T07:30:00;21.55;;;13.90;;
22005;SDS011;11167;46.988;15.470;2024-01-06T07:32:01;23.95;;;15.18;;
22005;SDS011;11167;46.988;15.470;2024-01-06T07:34:02;22.77;;;15.03;;
22005;SDS011;11167;46.988;15.470;2024-01-06T07:36:05;23.42;;;15.23;;
22005;SDS011;11167;46.988;15.470;2024-01-06T07:38:06;23.98;;;15.20;;
22005;SDS011;11167;46.988;15.470;2024-01-06T07:40:10;27.02;;;16.67;;
22005;SDS011;11167;46.988;15.470;2024-01-06T07:42:14;26.07;;;16.07;;
22005;SDS011;11167;46.988;15.470;2024-01-06T07:44:15;25.45;;;15.58;;
22005;SDS011;11167;46.988;15.470;2024-01-06T07:46:18;23.77;;;14.85;;
22005;SDS011;11167;46.988;15.470;2024-01-06T07:50:41;20.85;;;13.65;;
22005;SDS011;11167;46.988;15.470;2024-01-06T07:52:42;20.90;;;13.15;;
22005;SDS011;11167;46.988;15.470;2024-01-06T07:54:43;22.30;;;13.78;;
22005;SDS011;11167;46.988;15.470;2024-01-06T07:56:44;22.60;;;13.65;;
22005;SDS011;11167;46.988;15.470;2024-01-06T07:58:46;20.90;;;13.65;;
22005;SDS011;11167;46.988;15.470;2024-01-06T08:00:47;22.07;;;13.48;;
22005;SDS011;11167;46.988;15.470;2024-01-06T08:02:48;20.62;;;13.50;;
22005;SDS011;11167;46.988;15.470;2024-01-06T08:04:49;19.85;;;13.55;;
22005;SDS011;11167;46.988;15.470;2024-01-06T08:06:51;19.20;;;13.90;;
22005;SDS011;11167;46.988;15.470;2024-01-06T08:08:52;19.35;;;13.10;;
22005;SDS011;11167;46.988;15.470;2024-01-06T08:10:53;20.00;;;13.72;;
22005;SDS011;11167;46.988;15.470;2024-01-06T08:12:54;17.23;;;12.78;;
22005;SDS011;11167;46.988;15.470;2024-01-06T08:14:55;20.55;;;13.45;;
22005;SDS011;11167;46.988;15.470;2024-01-06T08:16:56;19.35;;;13.25;;
22005;SDS011;11167;46.988;15.470;2024-01-06T08:18:58;19.48;;;13.48;;
22005;SDS011;11167;46.988;15.470;2024-01-06T08:20:59;18.65;;;13.32;;
22005;SDS011;11167;46.988;15.470;2024-01-06T08:23:00;18.98;;;13.72;;
22005;SDS011;11167;46.988;15.470;2024-01-06T08:25:02;18.62;;;12.75;;
22005;SDS011;11167;46.988;15.470;2024-01-06T08:27:04;17.48;;;13.05;;
22005;SDS011;11167;46.988;15.470;2024-01-06T08:29:05;17.60;;;13.00;;
22005;SDS011;11167;46.988;15.470;2024-01-06T08:31:07;18.10;;;12.82;;
22005;SDS011;11167;46.988;15.470;2024-01-06T08:33:08;19.27;;;13.53;;
22005;SDS011;11167;46.988;15.470;2024-01-06T08:35:09;20.45;;;12.90;;
22005;SDS011;11167;46.988;15.470;2024-01-06T08:37:10;18.37;;;13.03;;
22005;SDS011;11167;46.988;15.470;2024-01-06T08:39:12;18.82;;;12.78;;
22005;SDS011;11167;46.988;15.470;2024-01-06T08:41:13;18.60;;;12.53;;
22005;SDS011;11167;46.988;15.470;2024-01-06T08:43:15;18.00;;;12.98;;
22005;SDS011;11167;46.988;15.470;2024-01-06T08:45:16;17.17;;;11.68;;
22005;SDS011;11167;46.988;15.470;2024-01-06T08:47:17;15.65;;;11.45;;
22005;SDS011;11167;46.988;15.470;2024-01-06T08:49:18;18.35;;;12.33;;
22005;SDS011;11167;46.988;15.470;2024-01-06T08:51:19;16.95;;;12.60;;
22005;SDS011;11167;46.988;15.470;2024-01-06T08:53:21;15.72;;;11.80;;
22005;SDS011;11167;46.988;15.470;2024-01-06T08:55:22;16.32;;;11.78;;
22005;SDS011;11167;46.988;15.470;2024-01-06T08:57:23;17.15;;;11.93;;
22005;SDS011;11167;46.988;15.470;2024-01-06T08:59:25;15.30;;;11.35;;
22005;SDS011;11167;46.988;15.470;2024-01-06T09:01:26;15.58;;;11.12;;
22005;SDS011;11167;46.988;15.470;2024-01-06T09:03:27;15.78;;;11.55;;
22005;SDS011;11167;46.988;15.470;2024-01-06T09:05:28;15.32;;;11.03;;
22005;SDS011;11167;46.988;15.470;2024-01-06T09:07:29;16.20;;;10.95;;
22005;SDS011;11167;46.988;15.470;2024-01-06T09:09:31;14.33;;;10.93;;
22005;SDS011;11167;46.988;15.470;2024-01-06T09:11:32;15.72;;;10.72;;
22005;SDS011;11167;46.988;15.470;2024-01-06T09:13:33;14.18;;;10.13;;
22005;SDS011;11167;46.988;15.470;2024-01-06T09:15:34;15.25;;;10.20;;
22005;SDS011;11167;46.988;15.470;2024-01-06T09:17:35;13.80;;;10.00;;
22005;SDS011;11167;46.988;15.470;2024-01-06T09:19:36;14.15;;;10.32;;
22005;SDS011;11167;46.988;15.470;2024-01-06T09:21:38;15.20;;;10.63;;
22005;SDS011;11167;46.988;15.470;2024-01-06T09:23:39;16.20;;;10.30;;
22005;SDS011;11167;46.988;15.470;2024-01-06T09:25:40;15.53;;;10.63;;
22005;SDS011;11167;46.988;15.470;2024-01-06T09:27:41;13.75;;;10.35;;
22005;SDS011;11167;46.988;15.470;2024-01-06T09:29:43;15.55;;;10.78;;
22005;SDS011;11167;46.988;15.470;2024-01-06T09:31:44;14.23;;;10.13;;
22005;SDS011;11167;46.988;15.470;2024-01-06T09:33:45;15.15;;;10.85;;
22005;SDS011;11167;46.988;15.470;2024-01-06T09:35:46;14.80;;;10.72;;
22005;SDS011;11167;46.988;15.470;2024-01-06T09:37:48;14.35;;;10.70;;
22005;SDS011;11167;46.988;15.470;2024-01-06T09:39:49;14.60;;;10.75;;
22005;SDS011;11167;46.988;15.470;2024-01-06T09:41:50;16.82;;;10.80;;
22005;SDS011;11167;46.988;15.470;2024-01-06T09:43:52;14.65;;;10.25;;
22005;SDS011;11167;46.988;15.470;2024-01-06T09:45:58;14.65;;;9.88;;
22005;SDS011;11167;46.988;15.470;2024-01-06T09:48:01;14.93;;;10.20;;
22005;SDS011;11167;46.988;15.470;2024-01-06T09:50:13;13.80;;;9.98;;
22005;SDS011;11167;46.988;15.470;2024-01-06T09:52:19;12.93;;;9.90;;
22005;SDS011;11167;46.988;15.470;2024-01-06T09:54:22;14.00;;;9.53;;
22005;SDS011;11167;46.988;15.470;2024-01-06T09:56:28;12.98;;;9.40;;
22005;SDS011;11167;46.988;15.470;2024-01-06T09:58:30;15.00;;;9.70;;
22005;SDS011;11167;46.988;15.470;2024-01-06T10:00:33;14.80;;;9.43;;
22005;SDS011;11167;46.988;15.470;2024-01-06T10:02:36;12.95;;;9.38;;
22005;SDS011;11167;46.988;15.470;2024-01-06T10:04:37;13.90;;;9.43;;
22005;SDS011;11167;46.988;15.470;2024-01-06T10:06:38;12.50;;;9.65;;
22005;SDS011;11167;46.988;15.470;2024-01-06T10:08:42;15.05;;;10.78;;
22005;SDS011;11167;46.988;15.470;2024-01-06T10:10:49;14.10;;;9.60;;
22005;SDS011;11167;46.988;15.470;2024-01-06T10:12:52;15.05;;;10.58;;
22005;SDS011;11167;46.988;15.470;2024-01-06T10:16:55;15.05;;;10.70;;
22005;SDS011;11167;46.988;15.470;2024-01-06T10:18:57;14.38;;;10.38;;
22005;SDS011;11167;46.988;15.470;2024-01-06T10:20:58;14.47;;;11.18;;
22005;SDS011;11167;46.988;15.470;2024-01-06T10:23:04;14.58;;;11.12;;
22005;SDS011;11167;46.988;15.470;2024-01-06T10:25:07;15.98;;;11.43;;
22005;SDS011;11167;46.988;15.470;2024-01-06T10:27:09;14.90;;;11.60;;
22005;SDS011;11167;46.988;15.470;2024-01-06T10:29:10;14.87;;;10.85;;
22005;SDS011;11167;46.988;15.470;2024-01-06T10:31:11;16.77;;;11.85;;
22005;SDS011;11167;46.988;15.470;2024-01-06T10:33:14;13.28;;;11.18;;
22005;SDS011;11167;46.988;15.470;2024-01-06T10:35:16;16.12;;;11.45;;
22005;SDS011;11167;46.988;15.470;2024-01-06T10:37:18;13.58;;;10.93;;
22005;SDS011;11167;46.988;15.470;2024-01-06T10:39:19;16.60;;;11.53;;
22005;SDS011;11167;46.988;15.470;2024-01-06T10:41:21;15.50;;;11.43;;
22005;SDS011;11167;46.988;15.470;2024-01-06T10:43:25;14.75;;;10.93;;
22005;SDS011;11167;46.988;15.470;2024-01-06T10:45:29;16.77;;;10.88;;
22005;SDS011;11167;46.988;15.470;2024-01-06T10:47:30;15.88;;;11.53;;
22005;SDS011;11167;46.988;15.470;2024-01-06T10:49:33;16.20;;;11.53;;
22005;SDS011;11167;46.988;15.470;2024-01-06T10:51:37;15.20;;;10.72;;
22005;SDS011;11167;46.988;15.470;2024-01-06T10:53:42;14.68;;;10.75;;
22005;SDS011;11167;46.988;15.470;2024-01-06T10:55:44;14.93;;;11.73;;
22005;SDS011;11167;46.988;15.470;2024-01-06T10:57:46;18.00;;;12.23;;
22005;SDS011;11167;46.988;15.470;2024-01-06T10:59:49;13.15;;;10.60;;
22005;SDS011;11167;46.988;15.470;2024-01-06T11:01:51;15.55;;;11.12;;
22005;SDS011;11167;46.988;15.470;2024-01-06T11:03:55;15.43;;;12.00;;
22005;SDS011;11167;46.988;15.470;2024-01-06T11:05:56;16.52;;;11.08;;
22005;SDS011;11167;46.988;15.470;2024-01-06T11:07:59;14.75;;;11.25;;
22005;SDS011;11167;46.988;15.470;2024-01-06T11:10:13;17.42;;;11.48;;
22005;SDS011;11167;46.988;15.470;2024-01-06T11:12:17;17.32;;;11.63;;
22005;SDS011;11167;46.988;15.470;2024-01-06T11:16:34;16.05;;;11.70;;
22005;SDS011;11167;46.988;15.470;2024-01-06T11:18:37;16.97;;;11.60;;
22005;SDS011;11167;46.988;15.470;2024-01-06T11:20:46;15.53;;;11.20;;
22005;SDS011;11167;46.988;15.470;2024-01-06T11:22:45;15.90;;;11.45;;
22005;SDS011;11167;46.988;15.470;2024-01-06T11:24:49;16.90;;;12.03;;
22005;SDS011;11167;46.988;15.470;2024-01-06T11:26:56;18.27;;;12.70;;
22005;SDS011;11167;46.988;15.470;2024-01-06T11:28:57;17.10;;;12.65;;
22005;SDS011;11167;46.988;15.470;2024-01-06T11:31:10;15.43;;;11.95;;
22005;SDS011;11167;46.988;15.470;2024-01-06T11:33:11;15.93;;;12.28;;
22005;SDS011;11167;46.988;15.470;2024-01-06T11:35:14;16.15;;;12.55;;
22005;SDS011;11167;46.988;15.470;2024-01-06T11:37:35;16.48;;;12.40;;
22005;SDS011;11167;46.988;15.470;2024-01-06T11:39:42;16.82;;;12.33;;
22005;SDS011;11167;46.988;15.470;2024-01-06T11:41:49;16.32;;;11.95;;
22005;SDS011;11167;46.988;15.470;2024-01-06T11:43:52;15.95;;;12.33;;
22005;SDS011;11167;46.988;15.470;2024-01-06T11:45:54;16.65;;;12.40;;
22005;SDS011;11167;46.988;15.470;2024-01-06T11:48:01;16.57;;;12.68;;
22005;SDS011;11167;46.988;15.470;2024-01-06T11:50:03;16.95;;;12.40;;
22005;SDS011;11167;46.988;15.470;2024-01-06T11:52:05;15.35;;;12.25;;
22005;SDS011;11167;46.988;15.470;2024-01-06T11:54:07;16.62;;;11.95;;